Map

Track Data

SID SEASON NUMBER BASIN SUBBASIN NAME ISO_TIME NATURE LAT LON WMO_WIND WMO_PRES WMO_AGENCY TRACK_TYPE DIST2LAND LANDFALL IFLAG USA_AGENCY USA_ATCF_ID USA_LAT USA_LON USA_RECORD USA_STATUS USA_WIND USA_PRES USA_SSHS USA_R34_NE USA_R34_SE USA_R34_SW USA_R34_NW USA_R50_NE USA_R50_SE USA_R50_SW USA_R50_NW USA_R64_NE USA_R64_SE USA_R64_SW USA_R64_NW USA_POCI USA_ROCI USA_RMW USA_EYE TOKYO_LAT TOKYO_LON TOKYO_GRADE TOKYO_WIND TOKYO_PRES TOKYO_R50_DIR TOKYO_R50_LONG TOKYO_R50_SHORT TOKYO_R30_DIR TOKYO_R30_LONG TOKYO_R30_SHORT TOKYO_LAND CMA_LAT CMA_LON CMA_CAT CMA_WIND CMA_PRES HKO_LAT HKO_LON HKO_CAT HKO_WIND HKO_PRES NEWDELHI_LAT NEWDELHI_LON NEWDELHI_GRADE NEWDELHI_WIND NEWDELHI_PRES NEWDELHI_CI NEWDELHI_DP NEWDELHI_POCI REUNION_LAT REUNION_LON REUNION_TYPE REUNION_WIND REUNION_PRES REUNION_TNUM REUNION_CI REUNION_RMW REUNION_R34_NE REUNION_R34_SE REUNION_R34_SW REUNION_R34_NW REUNION_R50_NE REUNION_R50_SE REUNION_R50_SW REUNION_R50_NW REUNION_R64_NE REUNION_R64_SE REUNION_R64_SW REUNION_R64_NW BOM_LAT BOM_LON BOM_TYPE BOM_WIND BOM_PRES BOM_TNUM BOM_CI BOM_RMW BOM_R34_NE BOM_R34_SE BOM_R34_SW BOM_R34_NW BOM_R50_NE BOM_R50_SE BOM_R50_SW BOM_R50_NW BOM_R64_NE BOM_R64_SE BOM_R64_SW BOM_R64_NW BOM_ROCI BOM_POCI BOM_EYE BOM_POS_METHOD BOM_PRES_METHOD NADI_LAT NADI_LON NADI_CAT NADI_WIND NADI_PRES WELLINGTON_LAT WELLINGTON_LON WELLINGTON_WIND WELLINGTON_PRES DS824_LAT DS824_LON DS824_STAGE DS824_WIND DS824_PRES TD9636_LAT TD9636_LON TD9636_STAGE TD9636_WIND TD9636_PRES TD9635_LAT TD9635_LON TD9635_WIND TD9635_PRES TD9635_ROCI NEUMANN_LAT NEUMANN_LON NEUMANN_CLASS NEUMANN_WIND NEUMANN_PRES MLC_LAT MLC_LON MLC_CLASS MLC_WIND MLC_PRES USA_GUST BOM_GUST BOM_GUST_PER REUNION_GUST REUNION_GUST_PER USA_SEAHGT USA_SEARAD_NE USA_SEARAD_SE USA_SEARAD_SW USA_SEARAD_NW STORM_SPEED STORM_DIR
1967222N10145 1967 68 WP MM IRIS 1967-08-10 06:00:00 TS 10.0000 145.200 1008 tokyo main 1364 1364 _O____________ -1 10.0000 145.200 2 1008 0 0 0 11 275
1967222N10145 1967 68 WP MM IRIS 1967-08-10 09:00:00 TS 10.0451 144.665 main 1372 1372 _P____________ -1 10.0451 144.665 2 1008 0 0 11 280
1967222N10145 1967 68 WP MM IRIS 1967-08-10 12:00:00 TS 10.2000 144.100 1008 tokyo main 1405 1405 _OO___________ -1 10.2000 144.100 2 1008 0 0 0 10.2000 144.100 0 1008 12 294
1967222N10145 1967 68 WP MM IRIS 1967-08-10 15:00:00 TS 10.5417 143.512 main 1452 1452 _PP___________ -1 10.5275 143.493 2 1008 0 0 10.5702 143.550 0 1008 13 302
1967222N10145 1967 68 WP MM IRIS 1967-08-10 18:00:00 TS 10.9000 142.943 1008 tokyo main 1494 1494 _OO___________ -1 10.9000 142.900 2 1008 0 0 0 10.9000 143.000 0 1008 12 300
1967222N10145 1967 68 WP MM IRIS 1967-08-10 21:00:00 TS 11.1648 142.421 main 1507 1500 _PP___________ -1 11.1648 142.392 2 1008 0 0 11.1649 142.450 0 1008 11 296
1967222N10145 1967 68 WP MM IRIS 1967-08-11 00:00:00 TS 11.4000 141.900 1008 tokyo main 1513 1510 _OO___________ -1 11.4000 141.900 2 1008 0 0 0 11.4000 141.900 0 1008 11 295
1967222N10145 1967 68 WP MM IRIS 1967-08-11 03:00:00 TS 11.6423 141.369 main 1516 1516 _PP___________ -1 11.6347 141.395 2 1006 0 0 11.6499 141.342 0 1006 12 295
1967222N10145 1967 68 WP MM IRIS 1967-08-11 06:00:00 TS 11.9000 140.800 1004 tokyo main 1522 1518 _OO___________ -1 11.9000 140.800 2 1004 0 0 0 11.9000 140.800 0 1004 13 295
1967222N10145 1967 68 WP MM IRIS 1967-08-11 09:00:00 TS 12.1926 140.154 main 1532 1499 _PP___________ -1 12.2429 140.000 2 1005 0 0 12.1423 140.307 0 1005 14 295
1967222N10145 1967 68 WP MM IRIS 1967-08-11 12:00:00 TS 12.5000 139.500 1006 tokyo main 1499 1451 _OO___________ -1 12.6000 139.200 2 1006 0 0 0 12.4000 139.800 0 1006 13 298
1967222N10145 1967 68 WP MM IRIS 1967-08-11 15:00:00 TS 12.8146 138.944 main 1440 1390 _PP___________ -1 12.9295 138.627 2 1006 0 0 12.6996 139.260 0 1006 13 298
1967222N10145 1967 68 WP MM IRIS 1967-08-11 18:00:00 TS 13.1000 138.350 1006 tokyo main 1390 1319 _OO___________ -1 13.2000 138.100 2 1006 0 0 0 13.0000 138.600 0 1006 14 292
1967222N10145 1967 68 WP MM IRIS 1967-08-11 21:00:00 TS 13.3299 137.624 main 1308 1228 _PP___________ -1 13.3871 137.502 2 1006 0 0 13.2726 137.745 0 1006 16 285
1967222N10145 1967 68 WP MM IRIS 1967-08-12 00:00:00 TS 13.5000 136.800 1006 tokyo main 1228 1146 _OO___________ -1 13.5000 136.800 2 1006 0 0 0 13.5000 136.800 0 1006 17 279
1967222N10145 1967 68 WP MM IRIS 1967-08-12 03:00:00 TS 13.5959 135.933 main 1135 1054 _PP___________ -1 13.5274 135.952 2 1006 0 0 13.6645 135.915 0 1006 18 277
1967222N10145 1967 68 WP MM IRIS 1967-08-12 06:00:00 TS 13.7000 135.000 1006 tokyo main 1043 951 _OO___________ -1 13.6000 135.000 2 1006 0 0 0 13.8000 135.000 0 1006 18 280
1967222N10145 1967 68 WP MM IRIS 1967-08-12 09:00:00 TS 13.9203 134.068 main 951 850 _PP___________ -1 13.8916 134.068 2 1006 0 0 13.9490 134.067 0 1006 20 283
1967222N10145 1967 68 WP MM IRIS 1967-08-12 12:00:00 TS 14.1500 133.000 1006 tokyo main 842 711 _OO___________ -1 14.2000 133.000 2 1006 0 0 0 14.1000 133.000 0 1006 24 279
1967222N10145 1967 68 WP MM IRIS 1967-08-12 15:00:00 TS 14.2718 131.672 main 711 584 _PP___________ -1 14.3080 131.672 2 1006 0 0 14.2355 131.672 0 1006 26 275
1967222N10145 1967 68 WP MM IRIS 1967-08-12 18:00:00 TS 14.4000 130.300 1006 tokyo main 575 473 _OO___________ -1 14.4000 130.300 2 1006 0 0 0 14.4000 130.300 0 1006 26 278
1967222N10145 1967 68 WP MM IRIS 1967-08-12 21:00:00 TS 14.6385 129.060 main 473 412 _PP___________ -1 14.6347 129.060 2 1006 0 0 14.6422 129.060 0 1006 23 283
1967222N10145 1967 68 WP MM IRIS 1967-08-13 00:00:00 TS 14.9000 128.000 1006 tokyo main 403 330 _OO___________ -1 14.9000 128.000 2 1006 0 0 0 14.9000 128.000 0 1006 19 284
1967222N10145 1967 68 WP MM IRIS 1967-08-13 03:00:00 TS 15.0990 127.190 main 330 275 _PP___________ -1 15.0990 127.190 2 1006 0 0 15.0990 127.190 0 1006 15 285
1967222N10145 1967 68 WP MM IRIS 1967-08-13 06:00:00 TS 15.3000 126.500 1006 tokyo main 275 232 _OO___________ -1 15.3000 126.500 2 1006 0 0 0 15.3000 126.500 0 1006 15 286
1967222N10145 1967 68 WP MM IRIS 1967-08-13 09:00:00 TS 15.5011 125.738 main 225 208 _PP___________ -1 15.5198 125.742 2 1006 0 0 15.4824 125.734 0 1006 15 289
1967222N10145 1967 68 WP MM IRIS 1967-08-13 12:00:00 TS 15.8000 125.000 1006 tokyo main 215 203 _OO___________ -1 15.8000 125.000 2 1006 0 0 0 15.8000 125.000 0 1006 16 299
1967222N10145 1967 68 WP MM IRIS 1967-08-13 15:00:00 TS 16.2913 124.269 main 203 128 _PP___________ -1 16.1776 124.248 2 1005 0 0 16.4050 124.291 0 1005 17 309
1967222N10145 1967 68 WP MM IRIS 1967-08-13 18:00:00 TS 16.8500 123.650 1004 tokyo main 127 91 _OO___________ -1 16.6000 123.600 2 1004 0 0 0 17.1000 123.700 0 1004 15 318
1967222N10145 1967 68 WP MM IRIS 1967-08-13 21:00:00 TS 17.3732 123.256 main 96 77 _PP___________ -1 16.9995 123.169 2 1003 0 0 17.7469 123.342 0 1003 12 323
1967222N10145 1967 68 WP MM IRIS 1967-08-14 00:00:00 TS 17.8000 122.900 1002 tokyo main 77 30 _OO___________ -1 17.4000 122.800 2 1002 0 0 0 18.2000 123.000 0 1002 10 312
1967222N10145 1967 68 WP MM IRIS 1967-08-14 03:00:00 TS 18.0667 122.451 main 30 0 _PP___________ -1 17.8069 122.375 2 1002 0 0 18.3264 122.528 0 1001 14 284
1967222N10145 1967 68 WP MM IRIS 1967-08-14 06:00:00 TS 18.1444 121.489 1002 tokyo main 0 0 _OOO__________ -1 18.2000 121.800 2 1002 0 0 0 18.2000 121.800 1 23 1000 17.7000 119.000 TD 25 998 20 274
1967222N10145 1967 68 WP MM IRIS 1967-08-14 09:00:00 TS 18.2039 120.329 main 23 23 _PPP__________ -1 18.5803 120.960 2 1001 0 0 17.8418 120.612 1 23 1000 18.1751 118.497 TD 27 997 22 276
1967222N10145 1967 68 WP MM IRIS 1967-08-14 12:00:00 TS 18.3727 119.209 1000 tokyo main 141 141 _OOO__________ -1 18.9000 120.000 2 1000 0 0 0 17.6000 119.400 1 23 1000 18.7000 117.900 TD 30 996 20 286
1967222N10145 1967 68 WP MM IRIS 1967-08-14 15:00:00 TS 18.7603 118.290 main 244 244 _PPP__________ -1 19.1147 119.092 2 999 0 0 17.8787 118.633 1 26 999 19.2875 117.146 TD 32 995 18 296
1967222N10145 1967 68 WP MM IRIS 1967-08-14 18:00:00 TS 19.1667 117.500 998 tokyo main 338 338 _OOO__________ -1 19.3000 118.200 2 998 0 0 0 18.4000 118.000 1 29 998 19.8000 116.300 TS 35 994 17 297
1967222N10145 1967 68 WP MM IRIS 1967-08-14 21:00:00 TS 19.5274 116.666 main 369 302 _PPP__________ -1 19.5496 117.335 2 996 0 0 18.9147 117.265 1 33 996 20.1179 115.397 TS 35 992 18 293
1967222N10145 1967 68 WP MM IRIS 1967-08-15 00:00:00 TS 19.8750 115.700 994 tokyo main 302 256 OOOO_____OOO__ jtwc_wp WP141967 20.0000 115.200 25 -1 19.8000 116.500 9 994 0 0 0 19.4000 116.500 2 38 994 20.3000 114.600 TS 35 990 20.0000 115.200 TC 25 20.0000 115.200 1 25 20.0000 115.200 25 998 60 17 291
1967222N10145 1967 68 WP MM IRIS 1967-08-15 03:00:00 TS 20.1159 114.995 main 256 223 PPPP_____PPP__ WP141967 20.2125 114.785 27 -1 20.0069 115.700 9 994 0 0 19.7449 115.692 2 43 992 20.4219 114.067 TS 37 990 20.2125 114.785 TC 27 20.1745 114.673 1 28 20.2125 114.785 27 997 90 13 289
1967222N10145 1967 68 WP MM IRIS 1967-08-15 06:00:00 TS 20.3102 114.381 994 tokyo main 223 177 OOOO_____OPO__ jtwc_wp WP141967 20.4000 114.300 30 -1 20.2000 114.900 9 994 0 0 0 20.0000 114.900 3 48 990 20.5000 113.700 TS 40 990 20.4000 114.300 TC 30 20.3485 114.146 1 32 20.4000 114.300 30 996 120 12 288
1967222N10145 1967 68 WP MM IRIS 1967-08-15 09:00:00 TS 20.4853 113.746 main 172 146 PPPP_____PPP__ WP141967 20.5502 113.707 35 0 20.4081 113.983 9 994 0 0 20.2226 114.117 3 48 990 20.5923 113.377 TS 40 990 20.5502 113.707 TC 35 20.5233 113.621 1 36 20.5502 113.707 35 995 120 12 286
1967222N10145 1967 68 WP MM IRIS 1967-08-15 12:00:00 TS 20.6429 113.171 994 tokyo main 146 108 OOOO_____OOO__ jtwc_wp WP141967 20.7000 113.100 40 0 20.6000 113.200 9 994 0 0 0 20.4000 113.500 3 48 990 20.7000 113.100 TS 40 990 20.7000 113.100 TC 40 20.7000 113.100 2 40 20.7000 113.100 40 994 120 10 289
1967222N10145 1967 68 WP MM IRIS 1967-08-15 15:00:00 TS 20.8257 112.711 main 108 78 PPPP_____PPP__ WP141967 20.8998 112.570 40 0 20.7718 112.752 9 994 0 0 20.5645 113.167 3 48 990 20.8651 112.763 TS 40 992 20.8998 112.570 TC 40 20.8790 112.588 2 40 20.8998 112.570 40 994 150 9 294
1967222N10145 1967 68 WP MM IRIS 1967-08-15 18:00:00 TS 20.9939 112.343 994 tokyo main 78 59 OOOO_____OPO__ jtwc_wp WP141967 21.1000 112.100 40 0 20.9000 112.500 9 994 0 0 0 20.7000 113.000 3 48 990 21.0000 112.500 TS 40 994 21.1000 112.100 TC 40 21.0576 112.103 2 40 21.1000 112.100 40 994 180 7 294
1967222N10145 1967 68 WP MM IRIS 1967-08-15 21:00:00 TS 21.1067 112.022 main 59 39 PPPP_____PPP__ WP141967 21.2500 111.647 40 0 20.9573 112.285 9 994 0 0 20.8074 112.835 3 43 991 20.9999 112.427 TS 40 994 21.2500 111.647 TC 40 21.2323 111.666 2 40 21.2500 111.647 40 994 180 6 292
1967222N10145 1967 68 WP MM IRIS 1967-08-16 00:00:00 TS 21.2143 111.771 994 tokyo main 39 11 OOOO_____OOO__ jtwc_wp WP141967 21.4000 111.300 40 0 21.0000 112.100 9 994 0 0 0 20.9000 112.700 2 38 992 21.0000 112.400 TS 40 994 21.4000 111.300 TC 40 21.4000 111.300 2 40 21.4000 111.300 40 995 180 5 303
1967222N10145 1967 68 WP MM IRIS 1967-08-16 03:00:00 TS 21.3704 111.582 main 11 0 PPPP_____PPP__ WP141967 21.6073 111.127 37 0 21.0850 111.850 9 994 0 0 21.0000 112.557 2 38 992 21.1275 112.265 TS 37 994 21.6073 111.127 TC 37 21.5585 111.019 2 36 21.6073 111.127 37 995 180 4 317
1967222N10145 1967 68 WP MM IRIS 1967-08-16 06:00:00 TS 21.4887 111.493 994 tokyo main 0 0 OOOO_____OPO__ jtwc_wp WP141967 21.8000 111.000 35 0 21.2000 111.600 9 994 0 0 0 21.1000 112.400 2 38 992 21.3000 112.100 TS 35 995 21.8000 111.000 TC 35 21.7097 110.807 2 32 21.8000 111.000 35 996 180 2 320
1967222N10145 1967 68 WP MM IRIS 1967-08-16 09:00:00 TS 21.5534 111.415 main 0 0 PPPP_____PPP__ WP141967 21.9227 110.783 30 -1 21.3499 111.400 9 994 0 0 21.2000 112.200 2 38 992 21.4049 111.980 TS 32 995 21.9227 110.783 TC 30 21.8561 110.642 2 28 21.9227 110.783 30 997 180 2 309
1967222N10145 1967 68 WP MM IRIS 1967-08-16 12:00:00 TS 21.6000 111.347 994 tokyo main 0 0 OOOO_____OOO__ jtwc_wp WP141967 22.0000 110.500 25 -1 21.5000 111.200 9 994 0 0 0 21.3000 112.000 2 38 992 21.6000 111.800 TD 30 996 22.0000 110.500 TC 25 22.0000 110.500 1 25 22.0000 110.500 25 998 180 0 13
1967222N10145 1967 68 WP MM IRIS 1967-08-16 15:00:00 TS 21.5920 111.430 main 0 0 _PPP__________ WP141967 -1 21.6075 110.965 9 994 0 0 21.3774 111.865 2 33 992 21.9903 111.491 TD 27 996 TC 1 2 304
1967222N10145 1967 68 WP MM IRIS 1967-08-16 18:00:00 TS 21.7000 111.189 994 tokyo main 0 0 _OOO__________ -1 21.7000 110.700 2 994 0 0 0 21.5000 111.700 1 29 992 22.5000 111.100 TD 25 996 1 5 292
1967222N10145 1967 68 WP MM IRIS 1967-08-16 21:00:00 TS 21.7748 110.938 main 0 0 _PP___________ -1 21.7925 110.407 2 995 0 0 21.7572 111.468 1 23 993 TD 1 6 295
1967222N10145 1967 68 WP MM IRIS 1967-08-17 00:00:00 TS 21.9500 110.600 996 tokyo main 0 0 _OO___________ -1 21.9000 110.100 2 996 0 0 0 22.0000 111.100 0 17 995 7 293
1967222N10145 1967 68 WP MM IRIS 1967-08-17 03:00:00 TS 22.0611 110.199 main 0 0 _PP___________ -1 22.0572 109.830 2 996 0 0 22.0649 110.567 0 17 995 9 283
1967222N10145 1967 68 WP MM IRIS 1967-08-17 06:00:00 TS 22.1500 109.700 996 tokyo main 0 0 _OO___________ -1 22.2000 109.500 2 996 0 0 0 22.1000 109.900 0 17 995 11 280
1967222N10145 1967 68 WP MM IRIS 1967-08-17 09:00:00 TS 22.2465 109.083 main 0 0 _PP___________ -1 22.2577 109.022 2 997 0 0 22.2353 109.143 0 17 996 12 280
1967222N10145 1967 68 WP MM IRIS 1967-08-17 12:00:00 TS 22.3500 108.450 998 tokyo main 0 0 _OO___________ -1 22.3000 108.500 2 998 0 0 0 22.4000 108.400 0 17 997 11 282
1967222N10145 1967 68 WP MM IRIS 1967-08-17 15:00:00 TS 22.4709 107.924 main 0 0 _PP___________ -1 22.3924 108.028 2 998 0 0 22.5495 107.820 0 17 997 10 285
1967222N10145 1967 68 WP MM IRIS 1967-08-17 18:00:00 TS 22.6000 107.450 999 tokyo main 0 0 _OO___________ -1 22.5000 107.600 2 999 0 0 0 22.7000 107.300 0 17 998 9 286
1967222N10145 1967 68 WP MM IRIS 1967-08-17 21:00:00 TS 22.7249 106.989 main 0 0 _PP___________ -1 22.5998 107.242 2 999 0 0 22.8500 106.735 0 17 998 8 286
1967222N10145 1967 68 WP MM IRIS 1967-08-18 00:00:00 TS 22.8286 106.600 1000 tokyo main 0 0 _OO___________ -1 22.7000 106.900 2 1000 0 0 0 23.0000 106.200 0 17 998 7 286
1967222N10145 1967 68 WP MM IRIS 1967-08-18 03:00:00 TS 22.9217 106.248 main 0 0 _PP___________ -1 22.8075 106.508 2 1000 0 0 23.1501 105.730 0 17 999 7 285
1967222N10145 1967 68 WP MM IRIS 1967-08-18 06:00:00 TS 23.0000 105.900 1000 tokyo main 0 0 _OO___________ -1 22.9000 106.100 2 1000 0 0 0 23.3000 105.300 0 17 1000 5 274
1967222N10145 1967 68 WP MM IRIS 1967-08-18 09:00:00 TS 22.9602 105.698 main 0 0 _P____________ -1 22.9602 105.698 2 1000 0 0 0 6 270
1967222N10145 1967 68 WP MM IRIS 1967-08-18 12:00:00 TS 23.0000 105.300 1000 tokyo main 0 _O____________ -1 23.0000 105.300 2 1000 0 0 0 7 276

Digital Typhoon Data and Search

About IBTrACS Database

This database is a web-friendly format of International Best Track Archive for Climate Stewardship (IBTrACS), a global best track data archive curated by NOAA dating back to 1842.

Updated: 2021-12-06